sensor_id;sensor_type;location;lat;lon;timestamp;pressure;altitude;pressure_sealevel;temperature;humidity
48796;BME280;34607;48.520;-1.330;2023-02-04T12:18:18;102543.06;;;9.94;100.00
48796;BME280;34607;48.520;-1.330;2023-02-04T12:20:45;102544.38;;;10.03;100.00
48796;BME280;34607;48.520;-1.330;2023-02-04T12:23:12;102543.97;;;10.11;100.00
48796;BME280;34607;48.520;-1.330;2023-02-04T12:25:39;102537.44;;;10.18;100.00
48796;BME280;34607;48.520;-1.330;2023-02-04T12:28:06;102545.91;;;10.16;100.00
48796;BME280;34607;48.520;-1.330;2023-02-04T12:30:44;102547.28;;;10.09;100.00
48796;BME280;34607;48.520;-1.330;2023-02-04T12:33:14;102544.84;;;10.12;100.00
48796;BME280;34607;48.520;-1.330;2023-02-04T12:35:43;102531.75;;;10.09;100.00
48796;BME280;34607;48.520;-1.330;2023-02-04T12:38:10;102530.06;;;10.09;100.00
48796;BME280;34607;48.520;-1.330;2023-02-04T12:40:37;102529.59;;;10.17;100.00
48796;BME280;34607;48.520;-1.330;2023-02-04T12:43:05;102530.28;;;10.14;99.46
48796;BME280;34607;48.520;-1.330;2023-02-04T12:45:32;102538.22;;;10.17;99.27
48796;BME280;34607;48.520;-1.330;2023-02-04T12:47:59;102530.06;;;10.09;98.80
48796;BME280;34607;48.520;-1.330;2023-02-04T12:50:30;102530.94;;;10.10;99.11
48796;BME280;34607;48.520;-1.330;2023-02-04T12:52:58;102523.84;;;10.06;98.96
48796;BME280;34607;48.520;-1.330;2023-02-04T12:55:27;102526.56;;;10.09;99.13
48796;BME280;34607;48.520;-1.330;2023-02-04T12:57:54;102528.09;;;10.05;98.78
48796;BME280;34607;48.520;-1.330;2023-02-04T13:00:22;102519.63;;;10.08;98.53
48796;BME280;34607;48.520;-1.330;2023-02-04T13:02:51;102524.56;;;10.03;98.53
48796;BME280;34607;48.520;-1.330;2023-02-04T13:05:19;102525.94;;;10.13;98.54
48796;BME280;34607;48.520;-1.330;2023-02-04T13:07:47;102527.88;;;10.17;98.33
48796;BME280;34607;48.520;-1.330;2023-02-04T13:10:15;102526.41;;;10.22;97.78
48796;BME280;34607;48.520;-1.330;2023-02-04T13:12:43;102514.94;;;10.17;97.08
48796;BME280;34607;48.520;-1.330;2023-02-04T13:15:10;102521.16;;;10.21;97.43
48796;BME280;34607;48.520;-1.330;2023-02-04T13:17:37;102519.31;;;10.18;96.93
48796;BME280;34607;48.520;-1.330;2023-02-04T13:20:05;102520.59;;;10.26;97.17
48796;BME280;34607;48.520;-1.330;2023-02-04T13:22:33;102514.75;;;10.30;96.91
48796;BME280;34607;48.520;-1.330;2023-02-04T13:25:05;102512.09;;;10.29;96.13
48796;BME280;34607;48.520;-1.330;2023-02-04T13:27:35;102515.19;;;10.38;96.58
48796;BME280;34607;48.520;-1.330;2023-02-04T13:30:02;102515.44;;;10.43;96.34
48796;BME280;34607;48.520;-1.330;2023-02-04T13:32:34;102519.47;;;10.38;95.90
48796;BME280;34607;48.520;-1.330;2023-02-04T13:35:01;102510.31;;;10.28;95.42
48796;BME280;34607;48.520;-1.330;2023-02-04T13:37:28;102513.72;;;10.27;95.95
48796;BME280;34607;48.520;-1.330;2023-02-04T13:39:55;102509.94;;;10.37;96.08
48796;BME280;34607;48.520;-1.330;2023-02-04T13:42:22;102502.19;;;10.37;95.99
48796;BME280;34607;48.520;-1.330;2023-02-04T13:44:50;102511.22;;;10.28;95.60
48796;BME280;34607;48.520;-1.330;2023-02-04T13:47:18;102512.59;;;10.22;95.77
48796;BME280;34607;48.520;-1.330;2023-02-04T13:49:46;102516.81;;;10.20;95.73
48796;BME280;34607;48.520;-1.330;2023-02-04T13:52:13;102508.78;;;10.15;95.48
48796;BME280;34607;48.520;-1.330;2023-02-04T13:54:42;102507.16;;;10.17;95.62
48796;BME280;34607;48.520;-1.330;2023-02-04T13:57:10;102507.81;;;10.13;95.38
48796;BME280;34607;48.520;-1.330;2023-02-04T13:59:37;102504.59;;;10.01;95.25
48796;BME280;34607;48.520;-1.330;2023-02-04T14:02:05;102500.88;;;9.96;95.88
48796;BME280;34607;48.520;-1.330;2023-02-04T14:04:32;102507.50;;;9.90;95.53
48796;BME280;34607;48.520;-1.330;2023-02-04T14:06:59;102506.25;;;9.84;95.69
48796;BME280;34607;48.520;-1.330;2023-02-04T14:09:26;102506.19;;;9.82;95.80
48796;BME280;34607;48.520;-1.330;2023-02-04T14:11:53;102502.94;;;9.86;96.13
48796;BME280;34607;48.520;-1.330;2023-02-04T14:14:20;102502.38;;;9.92;96.34
48796;BME280;34607;48.520;-1.330;2023-02-04T14:16:47;102506.19;;;9.99;96.05
48796;BME280;34607;48.520;-1.330;2023-02-04T14:19:16;102508.53;;;9.94;95.92
48796;BME280;34607;48.520;-1.330;2023-02-04T14:21:43;102509.50;;;9.96;96.05
48796;BME280;34607;48.520;-1.330;2023-02-04T14:24:11;102510.47;;;9.98;96.04
48796;BME280;34607;48.520;-1.330;2023-02-04T14:26:38;102511.13;;;9.94;96.04
48796;BME280;34607;48.520;-1.330;2023-02-04T14:29:05;102518.22;;;9.98;96.02
48796;BME280;34607;48.520;-1.330;2023-02-04T14:31:32;102522.34;;;9.94;95.98
48796;BME280;34607;48.520;-1.330;2023-02-04T14:34:01;102528.34;;;9.93;96.09
48796;BME280;34607;48.520;-1.330;2023-02-04T14:36:29;102515.38;;;9.93;96.00
48796;BME280;34607;48.520;-1.330;2023-02-04T14:38:56;102523.97;;;9.92;96.27
48796;BME280;34607;48.520;-1.330;2023-02-04T14:41:23;102524.22;;;9.97;96.21
48796;BME280;34607;48.520;-1.330;2023-02-04T14:43:51;102529.03;;;9.74;95.08
48796;BME280;34607;48.520;-1.330;2023-02-04T14:46:19;102528.72;;;9.68;95.22
48796;BME280;34607;48.520;-1.330;2023-02-04T14:48:46;102532.47;;;9.59;95.05
48796;BME280;34607;48.520;-1.330;2023-02-04T14:51:16;102534.09;;;9.56;95.60
48796;BME280;34607;48.520;-1.330;2023-02-04T14:53:45;102525.41;;;9.56;95.59
48796;BME280;34607;48.520;-1.330;2023-02-04T14:56:12;102531.81;;;9.63;95.84
48796;BME280;34607;48.520;-1.330;2023-02-04T14:58:39;102529.25;;;9.63;95.28
48796;BME280;34607;48.520;-1.330;2023-02-04T15:01:06;102528.09;;;9.57;94.94
48796;BME280;34607;48.520;-1.330;2023-02-04T15:03:33;102538.72;;;9.62;95.42
48796;BME280;34607;48.520;-1.330;2023-02-04T15:06:00;102535.56;;;9.68;95.20
48796;BME280;34607;48.520;-1.330;2023-02-04T15:08:28;102530.25;;;9.65;94.72
48796;BME280;34607;48.520;-1.330;2023-02-04T15:10:56;102532.66;;;9.62;95.11
48796;BME280;34607;48.520;-1.330;2023-02-04T15:13:23;102534.88;;;9.55;94.99
48796;BME280;34607;48.520;-1.330;2023-02-04T15:15:50;102532.69;;;9.47;94.46
48796;BME280;34607;48.520;-1.330;2023-02-04T15:18:17;102530.97;;;9.47;94.68
48796;BME280;34607;48.520;-1.330;2023-02-04T15:20:44;102537.06;;;9.48;94.30
48796;BME280;34607;48.520;-1.330;2023-02-04T15:23:11;102541.69;;;9.53;94.71
48796;BME280;34607;48.520;-1.330;2023-02-04T15:25:39;102533.91;;;9.53;94.24
48796;BME280;34607;48.520;-1.330;2023-02-04T15:28:08;102540.63;;;9.50;93.74
48796;BME280;34607;48.520;-1.330;2023-02-04T15:30:35;102542.16;;;9.46;93.66
48796;BME280;34607;48.520;-1.330;2023-02-04T15:33:02;102548.75;;;9.41;93.57
48796;BME280;34607;48.520;-1.330;2023-02-04T15:35:29;102547.78;;;9.39;94.06
48796;BME280;34607;48.520;-1.330;2023-02-04T15:37:56;102543.13;;;9.48;94.02
48796;BME280;34607;48.520;-1.330;2023-02-04T15:40:23;102543.28;;;9.51;93.81
48796;BME280;34607;48.520;-1.330;2023-02-04T15:42:54;102547.81;;;9.55;93.85
48796;BME280;34607;48.520;-1.330;2023-02-04T15:45:22;102545.41;;;9.59;93.87
48796;BME280;34607;48.520;-1.330;2023-02-04T15:47:50;102551.16;;;9.53;93.67
48796;BME280;34607;48.520;-1.330;2023-02-04T15:50:17;102549.34;;;9.52;93.90
48796;BME280;34607;48.520;-1.330;2023-02-04T15:52:44;102536.78;;;9.43;93.39
48796;BME280;34607;48.520;-1.330;2023-02-04T15:55:11;102549.91;;;9.46;93.48
48796;BME280;34607;48.520;-1.330;2023-02-04T15:57:38;102547.31;;;9.46;93.32
48796;BME280;34607;48.520;-1.330;2023-02-04T16:00:06;102542.63;;;9.39;92.56
48796;BME280;34607;48.520;-1.330;2023-02-04T16:02:35;102541.09;;;9.28;91.44
48796;BME280;34607;48.520;-1.330;2023-02-04T16:05:02;102542.81;;;9.27;91.31
48796;BME280;34607;48.520;-1.330;2023-02-04T16:07:29;102544.03;;;9.34;91.73
48796;BME280;34607;48.520;-1.330;2023-02-04T16:09:56;102546.69;;;9.35;91.71
48796;BME280;34607;48.520;-1.330;2023-02-04T16:12:23;102552.69;;;9.34;91.34
48796;BME280;34607;48.520;-1.330;2023-02-04T16:14:50;102554.44;;;9.35;91.69
48796;BME280;34607;48.520;-1.330;2023-02-04T16:17:17;102557.03;;;9.35;91.91
48796;BME280;34607;48.520;-1.330;2023-02-04T16:19:46;102561.06;;;9.30;91.47
48796;BME280;34607;48.520;-1.330;2023-02-04T16:22:13;102560.25;;;9.31;91.80
48796;BME280;34607;48.520;-1.330;2023-02-04T16:24:40;102562.44;;;9.24;90.89
48796;BME280;34607;48.520;-1.330;2023-02-04T16:27:07;102559.75;;;9.22;91.51
48796;BME280;34607;48.520;-1.330;2023-02-04T16:29:34;102563.13;;;9.21;91.43
48796;BME280;34607;48.520;-1.330;2023-02-04T16:32:01;102561.59;;;9.25;91.40
48796;BME280;34607;48.520;-1.330;2023-02-04T16:34:28;102562.56;;;9.27;91.36
48796;BME280;34607;48.520;-1.330;2023-02-04T16:36:57;102569.16;;;9.22;90.46
48796;BME280;34607;48.520;-1.330;2023-02-04T16:39:24;102568.47;;;9.09;89.11
48796;BME280;34607;48.520;-1.330;2023-02-04T16:41:51;102566.34;;;9.02;88.56
48796;BME280;34607;48.520;-1.330;2023-02-04T16:44:19;102574.78;;;8.99;88.12
48796;BME280;34607;48.520;-1.330;2023-02-04T16:46:46;102570.06;;;8.92;88.10
48796;BME280;34607;48.520;-1.330;2023-02-04T16:49:15;102583.25;;;8.97;88.35
48796;BME280;34607;48.520;-1.330;2023-02-04T16:51:42;102579.44;;;9.05;88.66
48796;BME280;34607;48.520;-1.330;2023-02-04T16:54:10;102575.06;;;9.04;88.13
48796;BME280;34607;48.520;-1.330;2023-02-04T16:57:03;102573.22;;;9.02;88.00
48796;BME280;34607;48.520;-1.330;2023-02-04T16:59:33;102576.69;;;9.02;88.67
48796;BME280;34607;48.520;-1.330;2023-02-04T17:02:05;102580.22;;;9.04;88.87
48796;BME280;34607;48.520;-1.330;2023-02-04T17:04:36;102579.91;;;8.98;88.99
48796;BME280;34607;48.520;-1.330;2023-02-04T17:07:38;102593.78;;;9.00;88.96
48796;BME280;34607;48.520;-1.330;2023-02-04T17:10:28;102595.03;;;9.07;89.39
48796;BME280;34607;48.520;-1.330;2023-02-04T17:13:32;102590.66;;;9.06;89.44
48796;BME280;34607;48.520;-1.330;2023-02-04T17:16:02;102600.72;;;9.01;89.51
48796;BME280;34607;48.520;-1.330;2023-02-04T17:18:30;102600.03;;;9.04;89.58
48796;BME280;34607;48.520;-1.330;2023-02-04T17:20:58;102598.69;;;8.95;89.50
48796;BME280;34607;48.520;-1.330;2023-02-04T17:23:26;102587.28;;;8.92;89.41
48796;BME280;34607;48.520;-1.330;2023-02-04T17:25:55;102610.28;;;9.02;89.55
48796;BME280;34607;48.520;-1.330;2023-02-04T17:28:22;102615.97;;;8.96;89.57
48796;BME280;34607;48.520;-1.330;2023-02-04T17:30:50;102616.06;;;8.98;89.80
48796;BME280;34607;48.520;-1.330;2023-02-04T17:33:18;102620.41;;;8.99;89.61
48796;BME280;34607;48.520;-1.330;2023-02-04T17:35:45;102626.13;;;8.93;89.69
48796;BME280;34607;48.520;-1.330;2023-02-04T17:38:12;102626.81;;;8.91;89.68
48796;BME280;34607;48.520;-1.330;2023-02-04T17:40:39;102625.06;;;8.90;89.62
48796;BME280;34607;48.520;-1.330;2023-02-04T17:43:08;102630.56;;;8.96;89.55
48796;BME280;34607;48.520;-1.330;2023-02-04T17:45:35;102633.78;;;8.92;89.22
48796;BME280;34607;48.520;-1.330;2023-02-04T17:48:03;102643.22;;;8.91;89.14
48796;BME280;34607;48.520;-1.330;2023-02-04T17:50:39;102650.88;;;8.90;88.84
48796;BME280;34607;48.520;-1.330;2023-02-04T17:53:07;102608.97;;;8.66;88.60
48796;BME280;34607;48.520;-1.330;2023-02-04T17:55:35;102637.25;;;8.77;88.63
48796;BME280;34607;48.520;-1.330;2023-02-04T17:58:12;102616.00;;;8.68;88.64
48796;BME280;34607;48.520;-1.330;2023-02-04T18:00:41;102647.91;;;8.84;88.33
48796;BME280;34607;48.520;-1.330;2023-02-04T18:03:11;102630.28;;;8.76;88.58
48796;BME280;34607;48.520;-1.330;2023-02-04T18:05:42;102649.66;;;8.98;88.70
48796;BME280;34607;48.520;-1.330;2023-02-04T18:08:13;102661.06;;;9.02;88.94
48796;BME280;34607;48.520;-1.330;2023-02-04T18:10:42;102664.63;;;9.04;89.16
48796;BME280;34607;48.520;-1.330;2023-02-04T18:13:13;102663.03;;;9.06;89.20
48796;BME280;34607;48.520;-1.330;2023-02-04T18:15:43;102668.97;;;9.05;89.49
48796;BME280;34607;48.520;-1.330;2023-02-04T18:18:18;102668.09;;;9.04;89.72
48796;BME280;34607;48.520;-1.330;2023-02-04T18:20:46;102667.91;;;9.01;90.15
48796;BME280;34607;48.520;-1.330;2023-02-04T18:23:15;102653.66;;;8.93;90.12
48796;BME280;34607;48.520;-1.330;2023-02-04T18:25:42;102677.47;;;9.02;90.22
48796;BME280;34607;48.520;-1.330;2023-02-04T18:28:14;102673.09;;;9.01;90.27
48796;BME280;34607;48.520;-1.330;2023-02-04T18:30:42;102680.84;;;9.01;90.84
48796;BME280;34607;48.520;-1.330;2023-02-04T18:33:16;102679.56;;;8.94;90.60
48796;BME280;34607;48.520;-1.330;2023-02-04T18:35:48;102675.91;;;8.91;90.58
48796;BME280;34607;48.520;-1.330;2023-02-04T18:38:21;102682.88;;;8.92;90.61
48796;BME280;34607;48.520;-1.330;2023-02-04T18:40:49;102687.16;;;8.91;90.59
48796;BME280;34607;48.520;-1.330;2023-02-04T18:43:26;102677.81;;;8.93;90.50
48796;BME280;34607;48.520;-1.330;2023-02-04T18:45:56;102677.91;;;8.95;90.64
48796;BME280;34607;48.520;-1.330;2023-02-04T18:51:28;102685.25;;;8.89;90.46
48796;BME280;34607;48.520;-1.330;2023-02-04T18:53:58;102690.91;;;8.96;90.40
48796;BME280;34607;48.520;-1.330;2023-02-04T19:00:31;102701.94;;;8.94;90.57
48796;BME280;34607;48.520;-1.330;2023-02-04T19:03:03;102681.22;;;8.79;90.54
48796;BME280;34607;48.520;-1.330;2023-02-04T19:05:41;102706.91;;;8.91;90.68
48796;BME280;34607;48.520;-1.330;2023-02-04T19:08:20;102695.78;;;8.92;90.92
48796;BME280;34607;48.520;-1.330;2023-02-04T19:10:48;102697.66;;;8.94;91.09
48796;BME280;34607;48.520;-1.330;2023-02-04T19:13:21;102714.75;;;8.92;91.17
48796;BME280;34607;48.520;-1.330;2023-02-04T19:15:58;102716.16;;;8.87;91.70
48796;BME280;34607;48.520;-1.330;2023-02-04T19:18:28;102716.78;;;8.83;92.04
48796;BME280;34607;48.520;-1.330;2023-02-04T19:21:00;102716.28;;;8.89;92.06
48796;BME280;34607;48.520;-1.330;2023-02-04T19:23:35;102716.16;;;8.87;92.35
48796;BME280;34607;48.520;-1.330;2023-02-04T19:26:21;102715.91;;;8.83;92.50
48796;BME280;34607;48.520;-1.330;2023-02-04T19:28:51;102717.56;;;8.82;93.01
48796;BME280;34607;48.520;-1.330;2023-02-04T19:31:20;102704.78;;;8.70;93.05
48796;BME280;34607;48.520;-1.330;2023-02-04T19:33:48;102717.38;;;8.79;93.13
48796;BME280;34607;48.520;-1.330;2023-02-04T19:36:30;102719.91;;;8.77;93.18
48796;BME280;34607;48.520;-1.330;2023-02-04T19:45:24;102722.09;;;8.71;93.72
48796;BME280;34607;48.520;-1.330;2023-02-04T19:47:53;102713.13;;;8.79;93.48
48796;BME280;34607;48.520;-1.330;2023-02-04T19:50:25;102725.06;;;8.77;93.22
48796;BME280;34607;48.520;-1.330;2023-02-04T19:52:59;102721.31;;;8.72;92.59
48796;BME280;34607;48.520;-1.330;2023-02-04T19:59:25;102718.22;;;8.65;93.39
48796;BME280;34607;48.520;-1.330;2023-02-04T20:02:11;102717.53;;;8.67;93.04
48796;BME280;34607;48.520;-1.330;2023-02-04T20:04:52;102715.75;;;8.66;93.42
48796;BME280;34607;48.520;-1.330;2023-02-04T20:07:21;102723.59;;;8.68;93.41
48796;BME280;34607;48.520;-1.330;2023-02-04T20:09:53;102729.75;;;8.70;93.06
48796;BME280;34607;48.520;-1.330;2023-02-04T20:12:24;102735.44;;;8.64;93.09
48796;BME280;34607;48.520;-1.330;2023-02-04T20:14:55;102726.75;;;8.63;93.31
48796;BME280;34607;48.520;-1.330;2023-02-04T20:17:42;102706.63;;;8.58;92.94
48796;BME280;34607;48.520;-1.330;2023-02-04T20:20:21;102719.72;;;8.74;92.93
48796;BME280;34607;48.520;-1.330;2023-02-04T20:22:52;102720.59;;;8.75;92.69
48796;BME280;34607;48.520;-1.330;2023-02-04T20:25:44;102714.25;;;8.70;92.06
48796;BME280;34607;48.520;-1.330;2023-02-04T20:28:20;102727.47;;;8.74;92.44
48796;BME280;34607;48.520;-1.330;2023-02-04T20:30:49;102723.91;;;8.72;92.60
48796;BME280;34607;48.520;-1.330;2023-02-04T20:33:28;102726.47;;;8.72;92.45
48796;BME280;34607;48.520;-1.330;2023-02-04T20:36:38;102727.25;;;8.71;92.11
48796;BME280;34607;48.520;-1.330;2023-02-04T20:39:28;102730.53;;;8.69;92.62
48796;BME280;34607;48.520;-1.330;2023-02-04T20:42:21;102721.59;;;8.63;92.85
48796;BME280;34607;48.520;-1.330;2023-02-04T20:44:50;102722.31;;;8.61;93.54
48796;BME280;34607;48.520;-1.330;2023-02-04T20:47:19;102725.88;;;8.63;93.71
48796;BME280;34607;48.520;-1.330;2023-02-04T20:49:50;102724.56;;;8.70;93.84
48796;BME280;34607;48.520;-1.330;2023-02-04T20:55:27;102716.16;;;8.59;93.77
48796;BME280;34607;48.520;-1.330;2023-02-04T21:01:21;102709.59;;;8.37;94.08
48796;BME280;34607;48.520;-1.330;2023-02-04T21:07:21;102721.81;;;8.53;94.47
48796;BME280;34607;48.520;-1.330;2023-02-04T21:12:54;102717.66;;;8.55;94.11
48796;BME280;34607;48.520;-1.330;2023-02-04T21:15:25;102711.00;;;8.59;93.95
48796;BME280;34607;48.520;-1.330;2023-02-04T21:17:53;102710.78;;;8.69;93.52
48796;BME280;34607;48.520;-1.330;2023-02-04T21:20:20;102698.44;;;8.65;93.29
48796;BME280;34607;48.520;-1.330;2023-02-04T21:22:47;102719.50;;;8.71;93.39
48796;BME280;34607;48.520;-1.330;2023-02-04T21:25:14;102724.13;;;8.62;93.99
48796;BME280;34607;48.520;-1.330;2023-02-04T21:27:41;102731.94;;;8.63;94.65
48796;BME280;34607;48.520;-1.330;2023-02-04T21:30:11;102727.47;;;8.61;94.85
48796;BME280;34607;48.520;-1.330;2023-02-04T21:32:41;102725.91;;;8.50;95.09
48796;BME280;34607;48.520;-1.330;2023-02-04T21:35:08;102744.56;;;8.59;95.29
48796;BME280;34607;48.520;-1.330;2023-02-04T21:37:35;102737.81;;;8.61;95.52
48796;BME280;34607;48.520;-1.330;2023-02-04T21:40:03;102734.25;;;8.59;95.40
48796;BME280;34607;48.520;-1.330;2023-02-04T21:42:30;102742.78;;;8.58;95.65
48796;BME280;34607;48.520;-1.330;2023-02-04T21:44:57;102728.88;;;8.56;95.79
48796;BME280;34607;48.520;-1.330;2023-02-04T21:47:27;102738.69;;;8.61;96.15
48796;BME280;34607;48.520;-1.330;2023-02-04T21:49:54;102734.81;;;8.68;95.98
48796;BME280;34607;48.520;-1.330;2023-02-04T21:52:21;102736.00;;;8.60;95.54
48796;BME280;34607;48.520;-1.330;2023-02-04T21:55:10;102733.06;;;8.54;95.50
48796;BME280;34607;48.520;-1.330;2023-02-04T21:57:39;102741.78;;;8.56;95.82
48796;BME280;34607;48.520;-1.330;2023-02-04T22:00:08;102741.69;;;8.54;95.80
48796;BME280;34607;48.520;-1.330;2023-02-04T22:02:40;102741.59;;;8.53;95.87
48796;BME280;34607;48.520;-1.330;2023-02-04T22:05:08;102741.06;;;8.58;95.99
48796;BME280;34607;48.520;-1.330;2023-02-04T22:07:36;102746.53;;;8.63;95.95
48796;BME280;34607;48.520;-1.330;2023-02-04T22:10:06;102729.41;;;8.50;96.41
48796;BME280;34607;48.520;-1.330;2023-02-04T22:12:33;102733.75;;;8.51;96.25
48796;BME280;34607;48.520;-1.330;2023-02-04T22:15:01;102736.63;;;8.56;96.37
48796;BME280;34607;48.520;-1.330;2023-02-04T22:17:47;102736.06;;;8.47;96.47
48796;BME280;34607;48.520;-1.330;2023-02-04T22:20:14;102758.28;;;8.58;96.54
48796;BME280;34607;48.520;-1.330;2023-02-04T22:22:42;102759.25;;;8.60;96.78
48796;BME280;34607;48.520;-1.330;2023-02-04T22:25:10;102748.13;;;8.61;96.96
48796;BME280;34607;48.520;-1.330;2023-02-04T22:27:37;102754.50;;;8.66;96.48
48796;BME280;34607;48.520;-1.330;2023-02-04T22:30:06;102735.03;;;8.58;96.58
48796;BME280;34607;48.520;-1.330;2023-02-04T22:32:33;102757.59;;;8.60;96.57
48796;BME280;34607;48.520;-1.330;2023-02-04T22:35:02;102741.50;;;8.51;96.75
48796;BME280;34607;48.520;-1.330;2023-02-04T22:37:29;102758.38;;;8.59;97.06
48796;BME280;34607;48.520;-1.330;2023-02-04T22:39:56;102760.84;;;8.58;97.13
48796;BME280;34607;48.520;-1.330;2023-02-04T22:42:23;102770.00;;;8.53;97.24
48796;BME280;34607;48.520;-1.330;2023-02-04T22:44:51;102774.97;;;8.50;97.28
48796;BME280;34607;48.520;-1.330;2023-02-04T22:47:18;102750.34;;;8.41;97.29
48796;BME280;34607;48.520;-1.330;2023-02-04T22:49:45;102732.94;;;8.39;97.02
48796;BME280;34607;48.520;-1.330;2023-02-04T22:52:13;102759.97;;;8.57;96.44
48796;BME280;34607;48.520;-1.330;2023-02-04T22:54:40;102774.84;;;8.61;96.15
48796;BME280;34607;48.520;-1.330;2023-02-04T22:57:09;102777.16;;;8.57;95.78
48796;BME280;34607;48.520;-1.330;2023-02-04T22:59:36;102760.50;;;8.52;96.30
48796;BME280;34607;48.520;-1.330;2023-02-04T23:02:03;102738.88;;;8.38;96.04
48796;BME280;34607;48.520;-1.330;2023-02-04T23:04:30;102762.06;;;8.50;96.28
48796;BME280;34607;48.520;-1.330;2023-02-04T23:06:57;102760.28;;;8.49;96.60
48796;BME280;34607;48.520;-1.330;2023-02-04T23:09:31;102768.03;;;8.49;96.72
48796;BME280;34607;48.520;-1.330;2023-02-04T23:11:58;102769.13;;;8.52;96.94
48796;BME280;34607;48.520;-1.330;2023-02-04T23:14:38;102763.94;;;8.39;96.92
48796;BME280;34607;48.520;-1.330;2023-02-04T23:17:09;102775.13;;;8.39;96.92
48796;BME280;34607;48.520;-1.330;2023-02-04T23:19:39;102778.53;;;8.38;97.17
48796;BME280;34607;48.520;-1.330;2023-02-04T23:22:10;102772.84;;;8.31;97.19
48796;BME280;34607;48.520;-1.330;2023-02-04T23:24:40;102770.38;;;8.32;97.51
48796;BME280;34607;48.520;-1.330;2023-02-04T23:27:07;102771.25;;;8.33;97.73
48796;BME280;34607;48.520;-1.330;2023-02-04T23:29:36;102762.63;;;8.32;97.74
48796;BME280;34607;48.520;-1.330;2023-02-04T23:32:04;102773.78;;;8.44;97.71
48796;BME280;34607;48.520;-1.330;2023-02-04T23:34:31;102779.34;;;8.51;97.43
48796;BME280;34607;48.520;-1.330;2023-02-04T23:36:58;102770.00;;;8.53;97.23
48796;BME280;34607;48.520;-1.330;2023-02-04T23:39:26;102768.50;;;8.56;97.02
48796;BME280;34607;48.520;-1.330;2023-02-04T23:41:54;102763.63;;;8.61;96.81
48796;BME280;34607;48.520;-1.330;2023-02-04T23:44:21;102778.34;;;8.62;96.76
48796;BME280;34607;48.520;-1.330;2023-02-04T23:46:48;102767.81;;;8.59;96.68
48796;BME280;34607;48.520;-1.330;2023-02-04T23:49:15;102770.63;;;8.49;96.72
48796;BME280;34607;48.520;-1.330;2023-02-04T23:51:42;102771.69;;;8.52;97.18
48796;BME280;34607;48.520;-1.330;2023-02-04T23:54:10;102772.00;;;8.57;97.27
48796;BME280;34607;48.520;-1.330;2023-02-04T23:56:37;102752.34;;;8.46;97.21
48796;BME280;34607;48.520;-1.330;2023-02-04T23:59:06;102758.59;;;8.49;97.05
